Time;durP1;ratioP1;P1;durP2;ratioP2;P2;SDS_P1;SDS_P2;PMS_P1;PMS_P2;Temp;Humidity;BMP_temperature;BMP_pressure;BME280_temperature;BME280_humidity;BME280_pressure;Samples;Min_cycle;Max_cycle;Signal;HPM_P1;HPM_P2
2022/12/30 00:02:09;;;;;;;23.67;11.08;;;;;;;8.67;69.03;98931.98;4271367;81;28620;-76
2022/12/30 00:33:36;;;;;;;20.50;9.73;;;;;;;8.57;68.92;98912.38;4258080;81;28597;-77
2022/12/30 00:39:37;;;;;;;22.05;10.18;;;;;;;8.61;68.70;98916.27;4227358;81;28546;-77
2022/12/30 00:45:41;;;;;;;22.70;11.48;;;;;;;8.55;68.89;98929.20;4297577;81;28557;-77
2022/12/30 00:58:01;;;;;;;19.55;9.73;;;;;;;8.57;68.77;98932.47;4275024;81;28550;-77
2022/12/30 01:04:03;;;;;;;17.50;8.35;;;;;;;8.17;70.37;98936.28;4258418;81;28506;-77
2022/12/30 01:10:04;;;;;;;15.90;7.95;;;;;;;7.99;70.94;98922.81;4268924;81;28576;-77
2022/12/30 01:16:11;;;;;;;16.87;8.30;;;;;;;8.01;70.94;98930.11;4265659;81;28976;-77
2022/12/30 01:22:12;;;;;;;15.43;7.35;;;;;;;7.89;71.31;98924.65;4267670;81;28575;-76
2022/12/30 01:28:14;;;;;;;13.60;7.05;;;;;;;7.85;71.39;98910.04;4264008;81;28483;-77
2022/12/30 01:34:15;;;;;;;14.47;6.60;;;;;;;7.71;72.23;98900.77;4279290;81;28487;-76
2022/12/30 01:40:16;;;;;;;15.13;6.90;;;;;;;7.82;71.67;98895.25;4259526;81;28533;-76
2022/12/30 01:46:21;;;;;;;13.65;6.47;;;;;;;7.75;72.07;98874.40;4258481;82;28521;-78
2022/12/30 01:52:24;;;;;;;14.83;7.47;;;;;;;7.93;72.04;98874.48;4256826;81;28560;-76
2022/12/30 01:58:31;;;;;;;16.85;7.90;;;;;;;7.88;72.02;98878.31;4254268;81;28514;-76
2022/12/30 02:04:33;;;;;;;19.67;8.43;;;;;;;7.92;72.56;98878.20;4272333;81;28535;-76
2022/12/30 02:10:36;;;;;;;16.10;7.30;;;;;;;8.04;72.46;98867.58;4286886;81;28670;-76
2022/12/30 02:16:48;;;;;;;17.90;7.72;;;;;;;7.77;72.82;98869.64;4272176;81;28564;-77
2022/12/30 02:23:21;;;;;;;15.50;7.65;;;;;;;7.76;73.59;98870.17;4296410;81;28526;-77
2022/12/30 02:29:32;;;;;;;12.60;6.70;;;;;;;7.73;73.59;98879.16;4279160;81;28545;-76
2022/12/30 02:35:43;;;;;;;15.50;8.05;;;;;;;7.39;74.31;98882.02;4277572;81;28533;-75
2022/12/30 02:48:16;;;;;;;13.65;6.50;;;;;;;7.61;76.33;98885.70;4277776;81;28542;-76
2022/12/30 02:54:17;;;;;;;16.85;7.83;;;;;;;7.33;76.85;98895.73;4317777;81;28568;-77
2022/12/30 03:07:06;;;;;;;14.68;6.45;;;;;;;7.43;76.60;98895.26;4308381;81;28703;-76
2022/12/30 03:13:13;;;;;;;17.32;7.78;;;;;;;7.38;76.58;98893.76;4322294;81;28540;-75
2022/12/30 03:19:20;;;;;;;16.40;7.47;;;;;;;7.10;80.16;98901.59;4322252;81;28516;-76
2022/12/30 03:31:41;;;;;;;13.72;7.53;;;;;;;7.02;79.93;98912.00;4308341;81;28516;-76
2022/12/30 03:37:48;;;;;;;15.15;7.08;;;;;;;7.03;80.65;98918.98;4297458;81;28662;-76
2022/12/30 03:43:49;;;;;;;15.85;7.25;;;;;;;7.08;80.22;98921.87;4285190;81;28642;-76
2022/12/30 03:49:50;;;;;;;11.88;6.17;;;;;;;6.94;80.91;98929.10;4260239;81;28500;-77
2022/12/30 03:55:52;;;;;;;13.15;6.08;;;;;;;6.89;80.73;98931.57;4158965;83;28572;-76
2022/12/30 04:01:53;;;;;;;15.58;6.90;;;;;;;7.00;81.16;98940.80;4192071;83;28492;-76
2022/12/30 04:07:54;;;;;;;12.33;7.08;;;;;;;6.90;82.40;98943.90;4150186;83;28537;-77
2022/12/30 04:13:55;;;;;;;15.28;6.12;;;;;;;6.92;82.15;98955.73;4217478;83;28471;-76
2022/12/30 04:19:56;;;;;;;13.93;6.97;;;;;;;6.77;82.49;98955.46;4188393;83;28555;-76
2022/12/30 04:25:58;;;;;;;15.40;7.10;;;;;;;6.81;83.30;98963.36;4183848;82;28542;-76
2022/12/30 04:31:59;;;;;;;14.73;6.65;;;;;;;6.88;83.04;98970.55;4179042;83;28576;-76
2022/12/30 04:38:06;;;;;;;14.40;7.35;;;;;;;6.94;82.97;98977.72;4195833;82;28555;-76
2022/12/30 04:44:07;;;;;;;28.90;14.30;;;;;;;7.11;84.56;98980.25;4204479;82;28539;-76
2022/12/30 04:50:10;;;;;;;26.80;13.03;;;;;;;7.44;82.45;98992.39;4271587;81;28522;-77
2022/12/30 04:56:12;;;;;;;29.00;13.65;;;;;;;7.47;82.25;99002.16;4302016;81;28538;-77
2022/12/30 05:02:13;;;;;;;37.70;17.35;;;;;;;7.50;81.69;99003.59;4295454;81;28554;-77
2022/12/30 05:08:14;;;;;;;42.20;19.48;;;;;;;7.46;81.37;99005.87;4285311;81;28588;-76
2022/12/30 05:14:15;;;;;;;39.23;18.02;;;;;;;7.61;79.78;99023.50;4296985;81;28502;-77
2022/12/30 05:20:17;;;;;;;34.65;17.73;;;;;;;7.57;79.91;99037.81;4299008;81;28644;-77
2022/12/30 05:26:18;;;;;;;34.38;15.83;;;;;;;7.48;80.76;99055.97;4316489;81;28518;-77
2022/12/30 05:32:19;;;;;;;35.30;15.05;;;;;;;7.57;80.63;99061.09;4301290;81;28536;-76
2022/12/30 05:38:20;;;;;;;29.25;14.63;;;;;;;7.28;82.16;99061.34;4273203;81;28487;-76
2022/12/30 05:44:21;;;;;;;31.02;14.80;;;;;;;7.58;81.58;99077.45;4293753;81;28550;-76
2022/12/30 05:50:22;;;;;;;28.40;14.53;;;;;;;7.60;81.45;99084.23;4274247;81;28554;-75
2022/12/30 05:56:26;;;;;;;31.62;16.30;;;;;;;7.72;81.34;99094.29;4310092;81;28581;-76
2022/12/30 06:02:27;;;;;;;28.87;14.85;;;;;;;7.81;81.12;99107.21;4286265;81;28506;-76
2022/12/30 06:08:29;;;;;;;33.50;17.30;;;;;;;7.71;81.61;99108.70;4286026;81;28571;-77
2022/12/30 06:14:30;;;;;;;34.08;18.30;;;;;;;8.02;80.10;99110.64;4246352;81;28595;-78
2022/12/30 06:20:34;;;;;;;37.28;20.23;;;;;;;7.58;82.48;99127.75;4283904;81;28573;-77
2022/12/30 06:26:36;;;;;;;41.92;22.75;;;;;;;7.98;81.00;99136.70;4277898;82;28535;-78
2022/12/30 06:32:37;;;;;;;43.98;22.70;;;;;;;8.08;80.50;99142.44;4270486;82;28533;-79
2022/12/30 06:38:38;;;;;;;44.67;23.65;;;;;;;8.15;79.55;99156.63;4173261;84;28551;-76
2022/12/30 06:44:39;;;;;;;44.00;21.30;;;;;;;8.33;79.06;99182.72;4195758;84;28530;-74
2022/12/30 06:50:40;;;;;;;46.05;22.62;;;;;;;8.20;80.67;99180.09;4286178;81;28552;-74
2022/12/30 06:56:42;;;;;;;38.15;21.37;;;;;;;8.30;80.89;99192.52;4264340;83;28545;-73
2022/12/30 07:02:43;;;;;;;39.85;20.97;;;;;;;8.34;81.94;99196.41;4246816;83;28549;-74
2022/12/30 07:08:44;;;;;;;39.25;20.62;;;;;;;8.37;82.24;99212.05;4258208;83;28510;-72
2022/12/30 07:14:45;;;;;;;41.85;20.60;;;;;;;8.45;83.03;99226.25;4247481;83;28582;-73
2022/12/30 07:20:46;;;;;;;38.58;20.82;;;;;;;8.34;83.79;99222.39;4243676;83;28505;-72
2022/12/30 07:26:47;;;;;;;37.73;20.75;;;;;;;8.48;82.83;99239.22;4265773;82;28549;-74
2022/12/30 07:32:48;;;;;;;40.48;20.50;;;;;;;8.67;81.58;99248.26;4266169;82;28512;-74
2022/12/30 07:38:50;;;;;;;39.03;21.65;;;;;;;8.69;80.71;99246.69;4264586;83;28554;-79
2022/12/30 07:44:51;;;;;;;43.75;23.57;;;;;;;8.70;80.62;99244.34;4259061;83;28505;-77
2022/12/30 07:50:52;;;;;;;39.92;21.87;;;;;;;8.80;80.99;99252.74;4233999;82;28640;-78
2022/12/30 07:56:53;;;;;;;38.95;20.95;;;;;;;8.85;80.20;99268.16;4251749;81;28514;-78
2022/12/30 08:02:54;;;;;;;40.33;21.37;;;;;;;9.04;79.40;99279.83;4242767;81;28559;-76
2022/12/30 08:08:56;;;;;;;35.55;21.17;;;;;;;9.22;78.49;99286.34;4247639;81;28591;-77
2022/12/30 08:14:57;;;;;;;37.73;20.37;;;;;;;9.35;77.05;99278.20;4265081;81;28536;-76
2022/12/30 08:21:04;;;;;;;32.48;18.92;;;;;;;9.40;76.34;99282.38;4241089;82;28501;-75
2022/12/30 08:27:05;;;;;;;38.90;20.55;;;;;;;9.37;76.68;99294.06;4273233;81;28603;-76
2022/12/30 08:33:12;;;;;;;36.42;19.32;;;;;;;9.46;77.17;99300.30;4257060;81;28467;-76
2022/12/30 08:39:19;;;;;;;39.15;20.50;;;;;;;9.53;76.32;99304.28;4246326;81;28584;-77
2022/12/30 08:45:20;;;;;;;37.25;18.98;;;;;;;9.49;76.56;99313.28;4260736;81;28550;-76
2022/12/30 08:51:21;;;;;;;35.40;18.48;;;;;;;9.53;76.09;99324.92;4254323;81;28612;-75
2022/12/30 08:57:24;;;;;;;39.38;19.75;;;;;;;9.57;76.36;99328.30;4275089;81;28495;-76
2022/12/30 09:03:27;;;;;;;33.55;18.10;;;;;;;9.51;76.50;99336.39;4266529;81;28575;-77
2022/12/30 09:09:29;;;;;;;34.58;18.50;;;;;;;9.70;75.87;99349.40;4259492;81;28584;-76
2022/12/30 09:15:30;;;;;;;31.25;17.37;;;;;;;9.81;75.60;99359.94;4256685;81;28569;-75
2022/12/30 09:21:32;;;;;;;33.95;17.73;;;;;;;9.88;75.44;99362.06;4266232;81;28553;-75
2022/12/30 09:27:33;;;;;;;32.67;17.00;;;;;;;9.79;76.59;99370.92;4225911;81;28631;-78
2022/12/30 09:33:36;;;;;;;31.05;17.07;;;;;;;9.99;75.57;99368.58;4150667;84;28492;-77
2022/12/30 09:39:39;;;;;;;34.50;19.07;;;;;;;10.22;77.00;99368.52;4247595;81;28600;-77
2022/12/30 09:45:44;;;;;;;34.15;18.37;;;;;;;10.48;75.62;99365.28;4261077;81;28534;-74
2022/12/30 09:51:47;;;;;;;32.78;17.95;;;;;;;10.82;74.80;99365.74;4246452;81;28533;-75
2022/12/30 09:58:07;;;;;;;36.03;19.12;;;;;;;10.72;73.63;99369.77;4266857;81;28557;-77
2022/12/30 10:04:03;;;;;;;30.65;16.93;;;;;;;11.30;71.69;99346.64;4232310;81;28585;-77
2022/12/30 10:10:30;;;;;;;28.05;16.40;;;;;;;11.07;72.00;99341.97;4246296;81;28510;-77
2022/12/30 10:16:58;;;;;;;27.55;16.27;;;;;;;11.36;70.43;99333.59;4261978;81;28580;-77
2022/12/30 10:23:20;;;;;;;29.12;16.62;;;;;;;11.49;69.30;99343.36;4244693;81;28593;-79
2022/12/30 10:29:29;;;;;;;28.35;15.68;;;;;;;11.42;68.90;99334.55;4241363;81;28513;-84
2022/12/30 10:35:32;;;;;;;28.30;15.15;;;;;;;11.53;68.81;99339.69;4239140;81;28562;-80
2022/12/30 10:42:09;;;;;;;26.25;16.17;;;;;;;11.40;69.39;99337.49;4269111;81;28555;-80
2022/12/30 10:48:27;;;;;;;28.75;15.58;;;;;;;11.60;69.62;99321.53;4257714;81;28596;-80
2022/12/30 10:54:28;;;;;;;31.85;16.48;;;;;;;11.42;69.50;99319.23;4244320;81;28525;-80
2022/12/30 11:00:32;;;;;;;26.77;15.13;;;;;;;11.29;69.42;99334.20;4273205;81;28539;-80
2022/12/30 11:06:36;;;;;;;28.57;16.42;;;;;;;11.54;68.38;99344.02;4291284;81;28549;-81
2022/12/30 11:19:01;;;;;;;26.07;15.13;;;;;;;12.03;67.38;99332.28;4297455;81;28490;-81
2022/12/30 11:25:06;;;;;;;26.55;15.55;;;;;;;11.94;68.03;99327.23;4290400;81;28612;-81
2022/12/30 11:31:10;;;;;;;28.77;15.00;;;;;;;12.43;66.36;99344.26;4292566;81;28580;-81
2022/12/30 11:37:24;;;;;;;28.35;14.78;;;;;;;12.39;67.00;99348.78;4251277;81;28573;-81
2022/12/30 11:43:25;;;;;;;27.30;15.55;;;;;;;12.23;67.51;99343.54;4287663;81;28562;-82
2022/12/30 11:49:47;;;;;;;25.88;15.03;;;;;;;12.47;67.26;99345.41;4285485;81;28520;-80
2022/12/30 11:55:52;;;;;;;24.02;13.98;;;;;;;12.72;67.56;99339.75;4280129;81;28556;-83
2022/12/30 12:01:56;;;;;;;22.98;12.80;;;;;;;12.91;67.33;99335.03;4272567;81;28518;-82
2022/12/30 12:08:13;;;;;;;26.07;14.00;;;;;;;12.99;66.54;99333.83;4271502;81;28594;-77
2022/12/30 12:14:23;;;;;;;27.22;15.30;;;;;;;13.06;66.26;99331.78;4244024;81;28577;-78
2022/12/30 12:20:36;;;;;;;27.73;15.38;;;;;;;13.21;65.98;99331.80;4281182;81;28537;-83
2022/12/30 12:26:50;;;;;;;28.15;15.20;;;;;;;13.13;65.96;99342.98;4279247;81;28536;-83
2022/12/30 12:33:07;;;;;;;25.17;14.68;;;;;;;13.08;65.71;99356.68;4278378;81;28612;-81
2022/12/30 12:39:15;;;;;;;24.67;14.40;;;;;;;13.02;65.25;99346.03;4261268;81;28484;-82
2022/12/30 12:45:55;;;;;;;25.35;13.50;;;;;;;13.13;65.66;99341.63;4266819;81;28534;-83
2022/12/30 12:52:15;;;;;;;28.45;15.43;;;;;;;13.08;66.11;99347.23;4262120;81;28639;-82
2022/12/30 12:58:35;;;;;;;24.75;14.20;;;;;;;12.88;65.94;99347.63;4271058;81;28577;-84
2022/12/30 13:04:56;;;;;;;24.77;13.58;;;;;;;12.67;66.20;99357.99;4270124;81;28620;-80
2022/12/30 13:11:10;;;;;;;24.85;13.65;;;;;;;12.51;67.54;99368.98;4258021;81;28533;-83
2022/12/30 13:17:18;;;;;;;26.90;14.33;;;;;;;12.23;68.52;99365.11;4258674;81;28511;-83
2022/12/30 13:44:27;;;;;;;31.95;17.27;;;;;;;11.22;72.28;99346.41;3977231;85;28531;-82
2022/12/30 13:50:27;;;;;;;30.65;16.42;;;;;;;10.91;73.89;99360.36;4186861;83;28627;-82
2022/12/30 13:56:39;;;;;;;32.08;17.98;;;;;;;10.81;75.21;99367.63;4154556;84;28532;-83
2022/12/30 14:02:47;;;;;;;33.75;18.27;;;;;;;10.49;77.41;99366.42;4184730;83;28504;-83
2022/12/30 14:09:11;;;;;;;33.70;18.17;;;;;;;10.52;78.00;99365.16;4116595;84;28585;-83
2022/12/30 14:15:44;;;;;;;33.00;17.40;;;;;;;10.21;80.24;99362.84;4204822;83;28505;-82
2022/12/30 14:21:53;;;;;;;32.50;17.23;;;;;;;10.08;81.79;99369.14;4189221;83;28560;-82
2022/12/30 14:28:12;;;;;;;32.73;17.62;;;;;;;9.85;83.80;99370.56;4127974;84;28526;-82
2022/12/30 14:34:33;;;;;;;32.40;16.67;;;;;;;9.82;84.25;99369.13;4181343;83;28531;-85
2022/12/30 14:40:35;;;;;;;33.70;18.50;;;;;;;9.61;84.70;99365.77;4189283;83;28538;-83
2022/12/30 14:46:43;;;;;;;32.53;17.37;;;;;;;9.30;86.54;99361.19;4240736;82;28535;-84
2022/12/30 14:52:53;;;;;;;31.75;16.55;;;;;;;9.17;87.59;99368.81;4224669;82;28641;-80
2022/12/30 14:58:57;;;;;;;34.30;17.15;;;;;;;8.98;89.43;99385.27;4242874;82;28533;-85
2022/12/30 15:05:14;;;;;;;33.67;17.75;;;;;;;8.85;91.45;99376.24;4223501;82;28537;-88
2022/12/30 15:11:21;;;;;;;32.17;17.50;;;;;;;8.64;92.58;99374.64;4177064;83;28556;-80
2022/12/30 15:17:28;;;;;;;36.75;17.70;;;;;;;8.46;92.45;99369.91;4115339;85;28601;-81
2022/12/30 15:23:29;;;;;;;33.02;17.00;;;;;;;8.26;93.71;99367.27;4135477;84;28565;-79
2022/12/30 15:29:32;;;;;;;32.78;16.42;;;;;;;7.93;94.98;99364.41;4197857;83;28525;-80
2022/12/30 15:35:37;;;;;;;35.75;17.42;;;;;;;7.85;95.36;99367.78;4147553;85;28589;-80
2022/12/30 15:41:57;;;;;;;;;;;;;;;;;;;;;
2022/12/30 15:54:55;;;;;;;32.50;17.12;;;;;;;7.43;100.00;99367.41;4230468;81;28614;-88
2022/12/30 16:01:20;;;;;;;38.38;17.80;;;;;;;7.39;99.26;99383.56;4194549;82;28556;-86
2022/12/30 16:15:21;;;;;;;33.65;17.48;;;;;;;7.40;100.00;99386.55;4074329;85;28558;-85
2022/12/30 16:21:30;;;;;;;31.33;16.77;;;;;;;7.18;99.19;99391.20;4047242;85;28490;-83
2022/12/30 16:27:35;;;;;;;38.45;18.35;;;;;;;7.10;98.64;99393.55;4196781;82;28586;-82
2022/12/30 16:33:36;;;;;;;33.00;17.65;;;;;;;6.94;100.00;99405.40;4220621;82;28581;-85
2022/12/30 16:39:38;;;;;;;35.88;18.00;;;;;;;6.70;99.14;99404.88;4196178;82;28569;-84
2022/12/30 16:45:40;;;;;;;37.50;18.07;;;;;;;6.48;100.00;99400.09;4187493;82;28614;-84
2022/12/30 16:51:50;;;;;;;37.45;18.12;;;;;;;6.86;100.00;99406.39;4193081;82;28528;-82
2022/12/30 16:57:53;;;;;;;33.55;18.12;;;;;;;6.77;100.00;99400.40;4189276;82;28578;-85
2022/12/30 17:03:55;;;;;;;36.58;18.17;;;;;;;6.44;98.96;99399.66;4195736;82;28544;-79
2022/12/30 17:16:21;;;;;;;45.63;21.20;;;;;;;6.20;100.00;99397.75;4198200;82;28534;-82
2022/12/30 17:22:23;;;;;;;36.85;18.40;;;;;;;6.04;100.00;99392.67;4205955;82;28535;-83
2022/12/30 17:28:24;;;;;;;36.42;19.32;;;;;;;5.97;100.00;99394.77;4217418;81;28555;-88
2022/12/30 17:34:26;;;;;;;34.35;17.48;;;;;;;6.03;100.00;99396.37;4213964;82;28505;-87
2022/12/30 17:40:27;;;;;;;42.75;20.57;;;;;;;5.97;100.00;99396.59;4171807;82;29558;-84
2022/12/30 17:46:30;;;;;;;46.95;22.40;;;;;;;5.83;100.00;99387.64;4211262;82;28512;-79
2022/12/30 17:52:32;;;;;;;38.53;19.12;;;;;;;5.76;100.00;99388.11;4208373;82;28542;-79
2022/12/30 17:58:33;;;;;;;32.60;18.00;;;;;;;6.02;100.00;99401.39;4204109;82;28577;-83
2022/12/30 18:04:34;;;;;;;37.33;19.57;;;;;;;5.79;100.00;99391.23;4188927;82;28516;-83
2022/12/30 18:10:42;;;;;;;40.50;19.70;;;;;;;5.81;100.00;99393.19;4198146;82;28587;-81
2022/12/30 18:16:48;;;;;;;41.33;20.70;;;;;;;5.62;99.89;99398.63;4196877;82;28547;-82
2022/12/30 18:22:49;;;;;;;34.73;19.02;;;;;;;5.49;99.42;99396.67;4189935;82;28482;-77
2022/12/30 18:28:53;;;;;;;42.30;20.75;;;;;;;5.44;99.15;99370.57;4214579;82;28482;-82
2022/12/30 18:34:54;;;;;;;40.05;20.02;;;;;;;5.52;98.93;99358.95;4193318;83;28542;-75
2022/12/30 18:40:55;;;;;;;40.63;21.40;;;;;;;5.28;97.28;99374.80;4189149;83;28514;-77
2022/12/30 18:46:56;;;;;;;45.75;23.00;;;;;;;5.20;98.10;99370.41;4199585;82;28613;-76
2022/12/30 18:52:57;;;;;;;41.92;21.62;;;;;;;5.21;100.00;99361.39;4193010;82;28583;-82
2022/12/30 18:58:59;;;;;;;43.15;21.15;;;;;;;5.00;100.00;99368.86;4170292;83;28493;-77
2022/12/30 19:05:00;;;;;;;40.88;21.02;;;;;;;4.79;100.00;99364.27;4208120;82;28495;-81
2022/12/30 19:11:04;;;;;;;46.10;23.02;;;;;;;4.93;100.00;99362.61;4182893;82;28530;-76
2022/12/30 19:17:05;;;;;;;45.43;22.00;;;;;;;4.80;100.00;99353.44;4184989;82;28585;-75
2022/12/30 19:23:07;;;;;;;44.65;22.65;;;;;;;4.58;100.00;99361.84;4182926;83;28542;-76
2022/12/30 19:29:08;;;;;;;43.05;22.67;;;;;;;4.58;100.00;99354.70;4199828;82;28464;-77
2022/12/30 19:35:09;;;;;;;44.58;22.75;;;;;;;4.73;100.00;99342.67;4209010;82;28479;-77
2022/12/30 19:41:22;;;;;;;41.48;22.00;;;;;;;4.70;100.00;99337.73;4226826;82;28530;-77
2022/12/30 19:47:24;;;;;;;50.78;23.87;;;;;;;4.66;100.00;99338.28;4209801;82;28578;-76
2022/12/30 19:53:27;;;;;;;51.02;23.25;;;;;;;4.72;100.00;99321.05;4187421;81;28493;-75
2022/12/30 19:59:30;;;;;;;48.17;24.20;;;;;;;4.62;100.00;99318.37;4219595;81;28542;-76
2022/12/30 20:05:33;;;;;;;45.10;23.05;;;;;;;4.82;100.00;99322.59;4221981;82;28560;-82
2022/12/30 20:11:35;;;;;;;47.30;23.87;;;;;;;4.71;100.00;99325.25;4252755;82;28603;-82
2022/12/30 20:17:39;;;;;;;44.13;23.07;;;;;;;4.93;100.00;99334.62;4188713;82;28466;-80
2022/12/30 20:23:43;;;;;;;48.20;22.95;;;;;;;4.86;100.00;99338.03;4316350;82;28526;-80
2022/12/30 20:29:44;;;;;;;43.55;21.95;;;;;;;4.83;100.00;99340.23;4279762;82;28526;-81
2022/12/30 20:35:51;;;;;;;42.05;22.17;;;;;;;4.63;100.00;99341.33;4220357;83;28517;-81
2022/12/30 20:41:56;;;;;;;43.50;22.15;;;;;;;4.51;100.00;99344.94;4265543;82;28522;-82
2022/12/30 20:47:57;;;;;;;49.60;26.10;;;;;;;4.41;100.00;99330.59;4212330;82;28514;-81
2022/12/30 20:54:01;;;;;;;50.38;24.63;;;;;;;4.48;100.00;99330.19;4244794;82;28528;-80
2022/12/30 21:00:04;;;;;;;44.15;24.23;;;;;;;4.68;100.00;99334.92;4253197;83;28554;-81
2022/12/30 21:06:06;;;;;;;42.93;21.97;;;;;;;4.49;100.00;99322.52;4267460;82;28523;-81
2022/12/30 21:12:07;;;;;;;46.15;23.62;;;;;;;4.52;100.00;99328.80;4258310;82;28510;-82
2022/12/30 21:18:10;;;;;;;49.03;24.12;;;;;;;4.44;100.00;99326.22;4217061;82;28585;-81
2022/12/30 21:24:11;;;;;;;46.37;22.10;;;;;;;4.48;100.00;99313.37;4235645;81;28529;-81
2022/12/30 21:30:18;;;;;;;50.90;25.52;;;;;;;4.17;100.00;99324.01;4237203;82;28533;-80
2022/12/30 21:36:24;;;;;;;40.30;20.37;;;;;;;4.01;100.00;99324.16;4246918;82;28534;-79
2022/12/30 22:07:50;;;;;;;46.00;22.80;;;;;;;4.05;100.00;99302.84;4241878;82;28479;-81
2022/12/30 22:13:51;;;;;;;43.92;23.65;;;;;;;4.17;100.00;99308.56;4228305;82;28965;-81
2022/12/30 22:19:52;;;;;;;57.73;30.90;;;;;;;4.27;100.00;99299.80;4217531;81;28570;-82
2022/12/30 22:25:57;;;;;;;58.02;30.30;;;;;;;4.27;100.00;99281.17;4223147;82;28535;-81
2022/12/30 22:31:59;;;;;;;67.73;32.20;;;;;;;4.40;100.00;99291.14;4231660;82;28521;-79
2022/12/30 22:38:00;;;;;;;62.03;30.05;;;;;;;4.59;100.00;99286.27;4243662;82;28553;-80
2022/12/30 22:44:02;;;;;;;61.98;32.25;;;;;;;4.46;100.00;99282.92;4213575;82;28548;-80
2022/12/30 22:50:07;;;;;;;69.72;35.38;;;;;;;4.30;100.00;99280.79;4232834;82;28592;-82
2022/12/30 22:56:09;;;;;;;71.67;36.90;;;;;;;4.39;100.00;99268.72;4209723;81;28562;-82
2022/12/30 23:02:12;;;;;;;71.22;36.33;;;;;;;4.42;100.00;99263.83;4213996;82;28549;-82
2022/12/30 23:08:13;;;;;;;74.40;37.08;;;;;;;4.19;100.00;99263.95;4206646;82;28539;-82
2022/12/30 23:20:33;;;;;;;81.78;39.53;;;;;;;4.04;100.00;99256.78;4193175;82;28541;-78
2022/12/30 23:26:37;;;;;;;72.22;38.00;;;;;;;4.02;100.00;99250.01;4199411;82;28544;-78
2022/12/30 23:32:38;;;;;;;72.35;37.63;;;;;;;4.09;100.00;99246.11;4186594;82;28569;-77
2022/12/30 23:38:40;;;;;;;73.80;37.75;;;;;;;4.15;100.00;99230.72;4188597;82;28532;-78
2022/12/30 23:44:41;;;;;;;64.72;33.98;;;;;;;4.22;100.00;99236.96;4230455;82;28519;-78
2022/12/30 23:50:42;;;;;;;72.37;35.73;;;;;;;4.04;100.00;99233.34;4212324;82;28530;-78
2022/12/30 23:56:43;;;;;;;64.92;32.65;;;;;;;4.17;100.00;99232.71;4168295;81;28548;-78
